sensor_id;sensor_type;location;lat;lon;timestamp;P1;durP1;ratioP1;P2;durP2;ratioP2
66595;SDS011;59017;49.252;18.838;2022-07-01T00:00:13;18.02;;;8.60;;
66595;SDS011;59017;49.252;18.838;2022-07-01T00:02:39;14.57;;;8.27;;
66595;SDS011;59017;49.252;18.838;2022-07-01T00:05:05;16.20;;;8.52;;
66595;SDS011;59017;49.252;18.838;2022-07-01T00:07:30;20.42;;;8.88;;
66595;SDS011;59017;49.252;18.838;2022-07-01T00:09:56;17.40;;;8.07;;
66595;SDS011;59017;49.252;18.838;2022-07-01T00:12:21;15.90;;;8.02;;
66595;SDS011;59017;49.252;18.838;2022-07-01T00:14:47;10.82;;;8.50;;
66595;SDS011;59017;49.252;18.838;2022-07-01T00:17:12;14.73;;;8.55;;
66595;SDS011;59017;49.252;18.838;2022-07-01T00:19:38;16.73;;;9.18;;
66595;SDS011;59017;49.252;18.838;2022-07-01T00:22:03;14.55;;;8.40;;
66595;SDS011;59017;49.252;18.838;2022-07-01T00:24:29;12.20;;;8.02;;
66595;SDS011;59017;49.252;18.838;2022-07-01T00:26:54;16.90;;;8.65;;
66595;SDS011;59017;49.252;18.838;2022-07-01T00:29:20;18.48;;;8.20;;
66595;SDS011;59017;49.252;18.838;2022-07-01T00:31:46;15.57;;;8.82;;
66595;SDS011;59017;49.252;18.838;2022-07-01T00:34:11;12.68;;;8.23;;
66595;SDS011;59017;49.252;18.838;2022-07-01T00:36:37;13.93;;;8.57;;
66595;SDS011;59017;49.252;18.838;2022-07-01T00:39:02;17.05;;;8.48;;
66595;SDS011;59017;49.252;18.838;2022-07-01T00:41:28;12.75;;;8.85;;
66595;SDS011;59017;49.252;18.838;2022-07-01T00:43:53;13.63;;;8.55;;
66595;SDS011;59017;49.252;18.838;2022-07-01T00:46:20;14.27;;;9.23;;
66595;SDS011;59017;49.252;18.838;2022-07-01T00:48:45;13.88;;;8.63;;
66595;SDS011;59017;49.252;18.838;2022-07-01T00:51:11;17.48;;;9.20;;
66595;SDS011;59017;49.252;18.838;2022-07-01T00:53:36;19.40;;;9.40;;
66595;SDS011;59017;49.252;18.838;2022-07-01T00:56:02;17.42;;;9.38;;
66595;SDS011;59017;49.252;18.838;2022-07-01T00:58:28;12.90;;;8.55;;
66595;SDS011;59017;49.252;18.838;2022-07-01T01:00:55;17.80;;;8.70;;
66595;SDS011;59017;49.252;18.838;2022-07-01T01:03:22;14.82;;;8.70;;
66595;SDS011;59017;49.252;18.838;2022-07-01T01:05:47;16.30;;;8.82;;
66595;SDS011;59017;49.252;18.838;2022-07-01T01:08:14;12.85;;;8.95;;
66595;SDS011;59017;49.252;18.838;2022-07-01T01:10:41;11.98;;;8.95;;
66595;SDS011;59017;49.252;18.838;2022-07-01T01:13:07;16.20;;;9.38;;
66595;SDS011;59017;49.252;18.838;2022-07-01T01:15:33;14.38;;;9.00;;
66595;SDS011;59017;49.252;18.838;2022-07-01T01:17:59;21.25;;;8.68;;
66595;SDS011;59017;49.252;18.838;2022-07-01T01:20:24;15.60;;;8.77;;
66595;SDS011;59017;49.252;18.838;2022-07-01T01:22:50;12.77;;;8.80;;
66595;SDS011;59017;49.252;18.838;2022-07-01T01:25:16;15.70;;;8.43;;
66595;SDS011;59017;49.252;18.838;2022-07-01T01:27:42;22.25;;;9.30;;
66595;SDS011;59017;49.252;18.838;2022-07-01T01:30:08;10.93;;;8.48;;
66595;SDS011;59017;49.252;18.838;2022-07-01T01:32:36;14.88;;;8.80;;
66595;SDS011;59017;49.252;18.838;2022-07-01T01:35:02;13.48;;;8.77;;
66595;SDS011;59017;49.252;18.838;2022-07-01T01:37:29;14.77;;;9.15;;
66595;SDS011;59017;49.252;18.838;2022-07-01T01:39:54;19.80;;;9.43;;
66595;SDS011;59017;49.252;18.838;2022-07-01T01:42:20;14.60;;;8.82;;
66595;SDS011;59017;49.252;18.838;2022-07-01T01:44:46;21.48;;;8.60;;
66595;SDS011;59017;49.252;18.838;2022-07-01T01:47:12;16.10;;;9.05;;
66595;SDS011;59017;49.252;18.838;2022-07-01T01:49:38;16.17;;;8.40;;
66595;SDS011;59017;49.252;18.838;2022-07-01T01:52:03;14.00;;;8.55;;
66595;SDS011;59017;49.252;18.838;2022-07-01T01:54:30;16.10;;;9.27;;
66595;SDS011;59017;49.252;18.838;2022-07-01T01:56:55;13.60;;;8.68;;
66595;SDS011;59017;49.252;18.838;2022-07-01T01:59:21;14.27;;;8.90;;
66595;SDS011;59017;49.252;18.838;2022-07-01T02:01:46;14.75;;;8.27;;
66595;SDS011;59017;49.252;18.838;2022-07-01T02:04:12;11.75;;;8.27;;
66595;SDS011;59017;49.252;18.838;2022-07-01T02:06:38;10.57;;;8.02;;
66595;SDS011;59017;49.252;18.838;2022-07-01T02:09:06;13.63;;;8.13;;
66595;SDS011;59017;49.252;18.838;2022-07-01T02:11:32;12.52;;;8.57;;
66595;SDS011;59017;49.252;18.838;2022-07-01T02:13:57;13.02;;;8.73;;
66595;SDS011;59017;49.252;18.838;2022-07-01T02:16:23;13.55;;;8.80;;
66595;SDS011;59017;49.252;18.838;2022-07-01T02:18:49;13.82;;;8.70;;
66595;SDS011;59017;49.252;18.838;2022-07-01T02:21:14;14.30;;;8.45;;
66595;SDS011;59017;49.252;18.838;2022-07-01T02:23:39;15.95;;;8.57;;
66595;SDS011;59017;49.252;18.838;2022-07-01T02:26:05;11.15;;;8.02;;
66595;SDS011;59017;49.252;18.838;2022-07-01T02:28:30;12.88;;;8.30;;
66595;SDS011;59017;49.252;18.838;2022-07-01T02:30:56;11.93;;;8.70;;
66595;SDS011;59017;49.252;18.838;2022-07-01T02:33:21;15.80;;;8.10;;
66595;SDS011;59017;49.252;18.838;2022-07-01T02:35:47;13.43;;;8.32;;
66595;SDS011;59017;49.252;18.838;2022-07-01T02:38:13;14.23;;;8.32;;
66595;SDS011;59017;49.252;18.838;2022-07-01T02:40:38;11.20;;;8.73;;
66595;SDS011;59017;49.252;18.838;2022-07-01T02:43:05;14.38;;;8.95;;
66595;SDS011;59017;49.252;18.838;2022-07-01T02:45:31;17.38;;;8.57;;
66595;SDS011;59017;49.252;18.838;2022-07-01T02:47:57;12.90;;;8.43;;
66595;SDS011;59017;49.252;18.838;2022-07-01T02:50:23;17.42;;;8.73;;
66595;SDS011;59017;49.252;18.838;2022-07-01T02:52:49;14.32;;;8.50;;
66595;SDS011;59017;49.252;18.838;2022-07-01T02:55:14;17.45;;;8.48;;
66595;SDS011;59017;49.252;18.838;2022-07-01T02:57:40;18.17;;;8.52;;
66595;SDS011;59017;49.252;18.838;2022-07-01T03:00:08;15.73;;;7.72;;
66595;SDS011;59017;49.252;18.838;2022-07-01T03:02:36;21.35;;;9.68;;
66595;SDS011;59017;49.252;18.838;2022-07-01T03:05:02;14.82;;;8.20;;
66595;SDS011;59017;49.252;18.838;2022-07-01T03:07:28;19.15;;;8.32;;
66595;SDS011;59017;49.252;18.838;2022-07-01T03:09:54;19.30;;;8.52;;
66595;SDS011;59017;49.252;18.838;2022-07-01T03:12:20;18.02;;;8.70;;
66595;SDS011;59017;49.252;18.838;2022-07-01T03:17:23;16.55;;;9.55;;
66595;SDS011;59017;49.252;18.838;2022-07-01T03:19:49;20.10;;;8.90;;
66595;SDS011;59017;49.252;18.838;2022-07-01T03:22:16;20.65;;;9.15;;
66595;SDS011;59017;49.252;18.838;2022-07-01T03:24:42;19.30;;;9.05;;
66595;SDS011;59017;49.252;18.838;2022-07-01T03:27:09;28.98;;;9.25;;
66595;SDS011;59017;49.252;18.838;2022-07-01T03:29:35;18.88;;;9.32;;
66595;SDS011;59017;49.252;18.838;2022-07-01T03:32:03;13.85;;;8.68;;
66595;SDS011;59017;49.252;18.838;2022-07-01T03:34:29;12.45;;;9.38;;
66595;SDS011;59017;49.252;18.838;2022-07-01T03:36:55;15.20;;;8.68;;
66595;SDS011;59017;49.252;18.838;2022-07-01T03:39:28;18.15;;;9.02;;
66595;SDS011;59017;49.252;18.838;2022-07-01T03:41:57;17.85;;;9.38;;
66595;SDS011;59017;49.252;18.838;2022-07-01T03:44:24;15.50;;;9.65;;
66595;SDS011;59017;49.252;18.838;2022-07-01T03:46:50;16.38;;;8.90;;
66595;SDS011;59017;49.252;18.838;2022-07-01T03:49:16;12.27;;;8.88;;
66595;SDS011;59017;49.252;18.838;2022-07-01T03:51:42;17.13;;;8.68;;
66595;SDS011;59017;49.252;18.838;2022-07-01T03:54:09;14.77;;;8.68;;
66595;SDS011;59017;49.252;18.838;2022-07-01T03:56:53;12.90;;;8.52;;
66595;SDS011;59017;49.252;18.838;2022-07-01T03:59:19;16.10;;;9.18;;
66595;SDS011;59017;49.252;18.838;2022-07-01T04:01:45;12.02;;;8.57;;
66595;SDS011;59017;49.252;18.838;2022-07-01T04:04:10;12.20;;;8.88;;
66595;SDS011;59017;49.252;18.838;2022-07-01T04:06:36;14.20;;;9.90;;
66595;SDS011;59017;49.252;18.838;2022-07-01T04:09:03;15.57;;;9.25;;
66595;SDS011;59017;49.252;18.838;2022-07-01T04:11:29;17.25;;;9.68;;
66595;SDS011;59017;49.252;18.838;2022-07-01T04:13:55;13.70;;;8.95;;
66595;SDS011;59017;49.252;18.838;2022-07-01T04:16:21;12.63;;;8.75;;
66595;SDS011;59017;49.252;18.838;2022-07-01T04:18:47;13.98;;;9.20;;
66595;SDS011;59017;49.252;18.838;2022-07-01T04:21:14;15.55;;;9.23;;
66595;SDS011;59017;49.252;18.838;2022-07-01T04:23:58;11.10;;;9.57;;
66595;SDS011;59017;49.252;18.838;2022-07-01T04:26:24;14.90;;;10.23;;
66595;SDS011;59017;49.252;18.838;2022-07-01T04:28:53;15.07;;;9.63;;
66595;SDS011;59017;49.252;18.838;2022-07-01T04:31:19;15.25;;;9.50;;
66595;SDS011;59017;49.252;18.838;2022-07-01T04:33:46;16.45;;;9.60;;
66595;SDS011;59017;49.252;18.838;2022-07-01T04:36:13;15.20;;;9.27;;
66595;SDS011;59017;49.252;18.838;2022-07-01T04:38:38;17.63;;;10.43;;
66595;SDS011;59017;49.252;18.838;2022-07-01T04:41:04;16.80;;;9.98;;
66595;SDS011;59017;49.252;18.838;2022-07-01T04:43:48;15.25;;;10.55;;
66595;SDS011;59017;49.252;18.838;2022-07-01T04:46:13;18.42;;;10.13;;
66595;SDS011;59017;49.252;18.838;2022-07-01T04:48:39;14.35;;;9.40;;
66595;SDS011;59017;49.252;18.838;2022-07-01T04:51:05;11.90;;;9.73;;
66595;SDS011;59017;49.252;18.838;2022-07-01T04:53:31;14.75;;;10.32;;
66595;SDS011;59017;49.252;18.838;2022-07-01T04:55:57;14.52;;;9.80;;
66595;SDS011;59017;49.252;18.838;2022-07-01T04:58:22;16.75;;;9.57;;
66595;SDS011;59017;49.252;18.838;2022-07-01T05:00:48;15.15;;;9.15;;
66595;SDS011;59017;49.252;18.838;2022-07-01T05:03:14;12.55;;;8.80;;
66595;SDS011;59017;49.252;18.838;2022-07-01T05:05:50;16.67;;;9.75;;
66595;SDS011;59017;49.252;18.838;2022-07-01T05:08:19;16.88;;;9.50;;
66595;SDS011;59017;49.252;18.838;2022-07-01T05:10:49;14.32;;;9.35;;
66595;SDS011;59017;49.252;18.838;2022-07-01T05:13:25;15.88;;;8.60;;
66595;SDS011;59017;49.252;18.838;2022-07-01T05:16:26;16.25;;;9.73;;
66595;SDS011;59017;49.252;18.838;2022-07-01T05:19:02;17.77;;;9.52;;
66595;SDS011;59017;49.252;18.838;2022-07-01T05:21:59;13.25;;;9.27;;
66595;SDS011;59017;49.252;18.838;2022-07-01T05:24:40;20.80;;;10.15;;
66595;SDS011;59017;49.252;18.838;2022-07-01T05:27:30;14.02;;;9.50;;
66595;SDS011;59017;49.252;18.838;2022-07-01T05:29:57;17.85;;;10.40;;
66595;SDS011;59017;49.252;18.838;2022-07-01T05:32:30;16.35;;;9.27;;
66595;SDS011;59017;49.252;18.838;2022-07-01T05:34:59;19.55;;;9.70;;
66595;SDS011;59017;49.252;18.838;2022-07-01T05:48:09;15.38;;;9.45;;
66595;SDS011;59017;49.252;18.838;2022-07-01T05:50:35;13.07;;;8.65;;
66595;SDS011;59017;49.252;18.838;2022-07-01T05:53:00;13.30;;;9.02;;
66595;SDS011;59017;49.252;18.838;2022-07-01T05:55:26;20.25;;;9.70;;
66595;SDS011;59017;49.252;18.838;2022-07-01T05:57:52;22.35;;;9.55;;
66595;SDS011;59017;49.252;18.838;2022-07-01T06:00:17;12.68;;;9.00;;
66595;SDS011;59017;49.252;18.838;2022-07-01T06:02:43;12.10;;;8.55;;
66595;SDS011;59017;49.252;18.838;2022-07-01T06:05:18;15.80;;;9.23;;
66595;SDS011;59017;49.252;18.838;2022-07-01T06:07:44;12.45;;;9.02;;
66595;SDS011;59017;49.252;18.838;2022-07-01T06:10:10;18.25;;;8.20;;
66595;SDS011;59017;49.252;18.838;2022-07-01T06:12:36;14.52;;;8.68;;
66595;SDS011;59017;49.252;18.838;2022-07-01T06:15:03;12.68;;;9.18;;
66595;SDS011;59017;49.252;18.838;2022-07-01T06:17:30;12.85;;;8.82;;
66595;SDS011;59017;49.252;18.838;2022-07-01T06:19:58;17.38;;;9.18;;
66595;SDS011;59017;49.252;18.838;2022-07-01T06:22:30;12.98;;;8.18;;
66595;SDS011;59017;49.252;18.838;2022-07-01T06:25:00;10.55;;;8.25;;
66595;SDS011;59017;49.252;18.838;2022-07-01T06:27:29;13.98;;;8.68;;
66595;SDS011;59017;49.252;18.838;2022-07-01T06:29:59;12.27;;;8.65;;
66595;SDS011;59017;49.252;18.838;2022-07-01T06:32:36;15.68;;;9.02;;
66595;SDS011;59017;49.252;18.838;2022-07-01T06:35:06;15.18;;;8.93;;
66595;SDS011;59017;49.252;18.838;2022-07-01T06:37:34;13.73;;;8.43;;
66595;SDS011;59017;49.252;18.838;2022-07-01T06:40:06;15.75;;;8.68;;
66595;SDS011;59017;49.252;18.838;2022-07-01T06:42:35;14.27;;;9.10;;
66595;SDS011;59017;49.252;18.838;2022-07-01T06:45:04;15.45;;;9.13;;
66595;SDS011;59017;49.252;18.838;2022-07-01T06:47:41;16.25;;;9.68;;
66595;SDS011;59017;49.252;18.838;2022-07-01T06:50:07;14.40;;;9.40;;
66595;SDS011;59017;49.252;18.838;2022-07-01T06:52:37;17.23;;;8.93;;
66595;SDS011;59017;49.252;18.838;2022-07-01T06:55:06;15.88;;;9.48;;
66595;SDS011;59017;49.252;18.838;2022-07-01T06:57:41;14.38;;;10.00;;
66595;SDS011;59017;49.252;18.838;2022-07-01T07:00:08;19.45;;;10.10;;
66595;SDS011;59017;49.252;18.838;2022-07-01T07:02:41;16.33;;;8.80;;
66595;SDS011;59017;49.252;18.838;2022-07-01T07:05:08;17.48;;;10.07;;
66595;SDS011;59017;49.252;18.838;2022-07-01T07:07:34;15.23;;;9.23;;
66595;SDS011;59017;49.252;18.838;2022-07-01T07:10:03;20.38;;;9.40;;
66595;SDS011;59017;49.252;18.838;2022-07-01T07:12:29;16.00;;;9.23;;
66595;SDS011;59017;49.252;18.838;2022-07-01T07:14:57;17.10;;;9.40;;
66595;SDS011;59017;49.252;18.838;2022-07-01T07:17:31;16.25;;;9.25;;
66595;SDS011;59017;49.252;18.838;2022-07-01T07:19:58;12.68;;;8.80;;
66595;SDS011;59017;49.252;18.838;2022-07-01T07:22:31;12.50;;;9.38;;
66595;SDS011;59017;49.252;18.838;2022-07-01T07:25:01;13.88;;;9.40;;
66595;SDS011;59017;49.252;18.838;2022-07-01T07:27:26;14.05;;;8.90;;
66595;SDS011;59017;49.252;18.838;2022-07-01T07:29:54;15.50;;;8.90;;
66595;SDS011;59017;49.252;18.838;2022-07-01T07:32:22;14.55;;;9.23;;
66595;SDS011;59017;49.252;18.838;2022-07-01T07:34:53;14.85;;;8.93;;
66595;SDS011;59017;49.252;18.838;2022-07-01T07:37:23;18.42;;;8.85;;
66595;SDS011;59017;49.252;18.838;2022-07-01T07:40:01;13.85;;;9.13;;
66595;SDS011;59017;49.252;18.838;2022-07-01T07:42:29;16.10;;;8.80;;
66595;SDS011;59017;49.252;18.838;2022-07-01T07:44:56;16.48;;;8.70;;
66595;SDS011;59017;49.252;18.838;2022-07-01T07:47:27;12.10;;;9.02;;
66595;SDS011;59017;49.252;18.838;2022-07-01T07:50:02;19.40;;;9.50;;
66595;SDS011;59017;49.252;18.838;2022-07-01T07:52:33;19.20;;;9.05;;
66595;SDS011;59017;49.252;18.838;2022-07-01T07:55:00;13.80;;;8.75;;
66595;SDS011;59017;49.252;18.838;2022-07-01T07:57:25;14.68;;;8.25;;
66595;SDS011;59017;49.252;18.838;2022-07-01T07:59:51;15.80;;;8.65;;
66595;SDS011;59017;49.252;18.838;2022-07-01T08:02:16;14.07;;;8.95;;
66595;SDS011;59017;49.252;18.838;2022-07-01T08:04:42;17.38;;;9.30;;
66595;SDS011;59017;49.252;18.838;2022-07-01T08:07:07;17.15;;;9.18;;
66595;SDS011;59017;49.252;18.838;2022-07-01T08:09:33;16.73;;;9.00;;
66595;SDS011;59017;49.252;18.838;2022-07-01T08:12:02;20.65;;;8.90;;
66595;SDS011;59017;49.252;18.838;2022-07-01T08:14:28;14.30;;;8.65;;
66595;SDS011;59017;49.252;18.838;2022-07-01T08:16:54;14.57;;;8.10;;
66595;SDS011;59017;49.252;18.838;2022-07-01T08:19:19;14.93;;;9.02;;
66595;SDS011;59017;49.252;18.838;2022-07-01T08:21:45;17.85;;;8.55;;
66595;SDS011;59017;49.252;18.838;2022-07-01T08:24:11;13.40;;;8.23;;
66595;SDS011;59017;49.252;18.838;2022-07-01T08:26:36;12.48;;;8.40;;
66595;SDS011;59017;49.252;18.838;2022-07-01T08:29:02;14.75;;;7.82;;
66595;SDS011;59017;49.252;18.838;2022-07-01T08:31:28;16.75;;;8.52;;
66595;SDS011;59017;49.252;18.838;2022-07-01T08:33:54;14.68;;;8.25;;
66595;SDS011;59017;49.252;18.838;2022-07-01T08:36:20;12.68;;;8.13;;
66595;SDS011;59017;49.252;18.838;2022-07-01T08:38:46;14.48;;;8.00;;
66595;SDS011;59017;49.252;18.838;2022-07-01T08:41:14;11.88;;;8.13;;
66595;SDS011;59017;49.252;18.838;2022-07-01T08:43:39;12.13;;;8.27;;
66595;SDS011;59017;49.252;18.838;2022-07-01T08:46:05;14.27;;;8.48;;
66595;SDS011;59017;49.252;18.838;2022-07-01T08:48:32;13.55;;;8.40;;
66595;SDS011;59017;49.252;18.838;2022-07-01T08:50:58;12.23;;;8.07;;
66595;SDS011;59017;49.252;18.838;2022-07-01T08:53:24;12.35;;;7.75;;
66595;SDS011;59017;49.252;18.838;2022-07-01T08:55:50;15.75;;;7.63;;
66595;SDS011;59017;49.252;18.838;2022-07-01T08:58:34;18.83;;;7.25;;
66595;SDS011;59017;49.252;18.838;2022-07-01T09:01:17;20.67;;;8.10;;
66595;SDS011;59017;49.252;18.838;2022-07-01T09:03:46;14.38;;;7.72;;
66595;SDS011;59017;49.252;18.838;2022-07-01T09:08:54;13.68;;;7.40;;
66595;SDS011;59017;49.252;18.838;2022-07-01T09:11:34;20.95;;;7.85;;
66595;SDS011;59017;49.252;18.838;2022-07-01T09:14:13;15.27;;;6.82;;
66595;SDS011;59017;49.252;18.838;2022-07-01T09:16:41;13.00;;;6.07;;
66595;SDS011;59017;49.252;18.838;2022-07-01T09:19:16;14.43;;;6.97;;
66595;SDS011;59017;49.252;18.838;2022-07-01T09:21:46;11.05;;;6.88;;
66595;SDS011;59017;49.252;18.838;2022-07-01T09:24:30;14.70;;;6.45;;
66595;SDS011;59017;49.252;18.838;2022-07-01T09:27:15;16.25;;;6.85;;
66595;SDS011;59017;49.252;18.838;2022-07-01T09:29:52;13.43;;;6.18;;
66595;SDS011;59017;49.252;18.838;2022-07-01T09:32:21;9.32;;;6.22;;
66595;SDS011;59017;49.252;18.838;2022-07-01T09:34:51;12.82;;;5.90;;
66595;SDS011;59017;49.252;18.838;2022-07-01T09:37:21;17.55;;;6.03;;
66595;SDS011;59017;49.252;18.838;2022-07-01T09:39:50;11.38;;;5.75;;
66595;SDS011;59017;49.252;18.838;2022-07-01T09:42:21;10.45;;;5.05;;
66595;SDS011;59017;49.252;18.838;2022-07-01T09:44:52;9.23;;;5.35;;
66595;SDS011;59017;49.252;18.838;2022-07-01T09:47:35;9.93;;;4.80;;
66595;SDS011;59017;49.252;18.838;2022-07-01T09:50:04;11.18;;;5.13;;
66595;SDS011;59017;49.252;18.838;2022-07-01T09:52:31;11.80;;;4.88;;
66595;SDS011;59017;49.252;18.838;2022-07-01T09:54:57;7.32;;;4.47;;
66595;SDS011;59017;49.252;18.838;2022-07-01T09:57:22;10.55;;;4.88;;
66595;SDS011;59017;49.252;18.838;2022-07-01T09:59:48;10.65;;;4.95;;
66595;SDS011;59017;49.252;18.838;2022-07-01T10:02:15;10.27;;;4.90;;
66595;SDS011;59017;49.252;18.838;2022-07-01T10:04:47;10.52;;;4.47;;
66595;SDS011;59017;49.252;18.838;2022-07-01T10:10:27;10.35;;;5.28;;
66595;SDS011;59017;49.252;18.838;2022-07-01T10:13:05;11.60;;;5.38;;
66595;SDS011;59017;49.252;18.838;2022-07-01T10:15:33;11.63;;;4.78;;
66595;SDS011;59017;49.252;18.838;2022-07-01T10:18:01;17.95;;;5.13;;
66595;SDS011;59017;49.252;18.838;2022-07-01T10:20:28;10.57;;;5.00;;
66595;SDS011;59017;49.252;18.838;2022-07-01T10:25:47;9.45;;;5.55;;
66595;SDS011;59017;49.252;18.838;2022-07-01T10:28:18;10.65;;;5.32;;
66595;SDS011;59017;49.252;18.838;2022-07-01T10:31:02;16.50;;;5.43;;
66595;SDS011;59017;49.252;18.838;2022-07-01T10:33:43;11.77;;;5.25;;
66595;SDS011;59017;49.252;18.838;2022-07-01T10:36:27;12.85;;;5.80;;
66595;SDS011;59017;49.252;18.838;2022-07-01T10:41:40;16.13;;;6.20;;
66595;SDS011;59017;49.252;18.838;2022-07-01T10:44:19;12.68;;;6.07;;
66595;SDS011;59017;49.252;18.838;2022-07-01T10:57:30;13.93;;;6.13;;
66595;SDS011;59017;49.252;18.838;2022-07-01T11:02:33;12.27;;;6.30;;
66595;SDS011;59017;49.252;18.838;2022-07-01T11:07:33;10.90;;;6.68;;
66595;SDS011;59017;49.252;18.838;2022-07-01T11:12:29;9.18;;;6.18;;
66595;SDS011;59017;49.252;18.838;2022-07-01T11:14:55;13.75;;;6.25;;
66595;SDS011;59017;49.252;18.838;2022-07-01T11:17:27;12.38;;;6.38;;
66595;SDS011;59017;49.252;18.838;2022-07-01T11:19:54;12.88;;;7.00;;
66595;SDS011;59017;49.252;18.838;2022-07-01T11:22:23;12.00;;;6.80;;
66595;SDS011;59017;49.252;18.838;2022-07-01T11:24:53;11.95;;;6.40;;
66595;SDS011;59017;49.252;18.838;2022-07-01T11:27:21;12.02;;;7.18;;
66595;SDS011;59017;49.252;18.838;2022-07-01T11:29:50;12.82;;;6.78;;
66595;SDS011;59017;49.252;18.838;2022-07-01T11:32:26;16.17;;;7.10;;
66595;SDS011;59017;49.252;18.838;2022-07-01T11:34:53;15.38;;;7.47;;
66595;SDS011;59017;49.252;18.838;2022-07-01T11:37:19;13.43;;;7.10;;
66595;SDS011;59017;49.252;18.838;2022-07-01T11:40:06;16.23;;;7.57;;
66595;SDS011;59017;49.252;18.838;2022-07-01T11:42:36;11.82;;;6.95;;
66595;SDS011;59017;49.252;18.838;2022-07-01T11:45:02;19.05;;;7.30;;
66595;SDS011;59017;49.252;18.838;2022-07-01T11:47:30;11.65;;;7.22;;
66595;SDS011;59017;49.252;18.838;2022-07-01T11:49:56;13.75;;;6.95;;
66595;SDS011;59017;49.252;18.838;2022-07-01T11:52:23;14.60;;;7.60;;
66595;SDS011;59017;49.252;18.838;2022-07-01T11:54:53;16.70;;;7.53;;
66595;SDS011;59017;49.252;18.838;2022-07-01T11:57:23;12.68;;;6.80;;
66595;SDS011;59017;49.252;18.838;2022-07-01T11:59:51;12.83;;;7.00;;
66595;SDS011;59017;49.252;18.838;2022-07-01T12:02:18;15.98;;;7.40;;
66595;SDS011;59017;49.252;18.838;2022-07-01T12:04:48;12.25;;;7.05;;
66595;SDS011;59017;49.252;18.838;2022-07-01T12:07:20;15.10;;;6.95;;
66595;SDS011;59017;49.252;18.838;2022-07-01T12:09:48;13.32;;;7.13;;
66595;SDS011;59017;49.252;18.838;2022-07-01T12:12:16;11.82;;;7.35;;
66595;SDS011;59017;49.252;18.838;2022-07-01T12:14:49;11.35;;;6.60;;
66595;SDS011;59017;49.252;18.838;2022-07-01T12:17:16;15.07;;;7.75;;
66595;SDS011;59017;49.252;18.838;2022-07-01T12:19:42;15.50;;;6.85;;
66595;SDS011;59017;49.252;18.838;2022-07-01T12:22:12;20.30;;;7.10;;
66595;SDS011;59017;49.252;18.838;2022-07-01T12:24:49;12.85;;;7.32;;
66595;SDS011;59017;49.252;18.838;2022-07-01T12:27:22;15.50;;;7.25;;
66595;SDS011;59017;49.252;18.838;2022-07-01T12:29:50;12.82;;;7.28;;
66595;SDS011;59017;49.252;18.838;2022-07-01T12:32:27;12.93;;;7.00;;
66595;SDS011;59017;49.252;18.838;2022-07-01T12:34:57;12.90;;;7.10;;
66595;SDS011;59017;49.252;18.838;2022-07-01T12:37:26;16.15;;;7.28;;
66595;SDS011;59017;49.252;18.838;2022-07-01T12:45:04;13.45;;;7.28;;
66595;SDS011;59017;49.252;18.838;2022-07-01T12:50:41;11.48;;;6.55;;
66595;SDS011;59017;49.252;18.838;2022-07-01T12:53:16;16.10;;;7.07;;
66595;SDS011;59017;49.252;18.838;2022-07-01T12:55:45;13.48;;;6.72;;
66595;SDS011;59017;49.252;18.838;2022-07-01T12:58:16;13.75;;;7.30;;
66595;SDS011;59017;49.252;18.838;2022-07-01T13:00:47;13.57;;;6.90;;
66595;SDS011;59017;49.252;18.838;2022-07-01T13:03:17;12.73;;;6.80;;
66595;SDS011;59017;49.252;18.838;2022-07-01T13:05:44;16.02;;;7.32;;
66595;SDS011;59017;49.252;18.838;2022-07-01T13:08:10;13.15;;;7.00;;
66595;SDS011;59017;49.252;18.838;2022-07-01T13:10:40;13.40;;;6.68;;
66595;SDS011;59017;49.252;18.838;2022-07-01T13:13:13;17.15;;;6.95;;
66595;SDS011;59017;49.252;18.838;2022-07-01T13:15:45;15.13;;;6.93;;
66595;SDS011;59017;49.252;18.838;2022-07-01T13:18:16;11.35;;;6.55;;
66595;SDS011;59017;49.252;18.838;2022-07-01T13:20:45;12.88;;;6.68;;
66595;SDS011;59017;49.252;18.838;2022-07-01T13:23:11;10.27;;;6.82;;
66595;SDS011;59017;49.252;18.838;2022-07-01T13:25:38;13.18;;;6.25;;
66595;SDS011;59017;49.252;18.838;2022-07-01T13:28:05;14.90;;;7.25;;
66595;SDS011;59017;49.252;18.838;2022-07-01T13:30:37;10.90;;;6.65;;
66595;SDS011;59017;49.252;18.838;2022-07-01T13:33:04;11.60;;;6.35;;
66595;SDS011;59017;49.252;18.838;2022-07-01T13:35:32;16.90;;;6.68;;
66595;SDS011;59017;49.252;18.838;2022-07-01T13:37:59;13.20;;;6.97;;
66595;SDS011;59017;49.252;18.838;2022-07-01T13:40:28;13.75;;;6.22;;
66595;SDS011;59017;49.252;18.838;2022-07-01T13:42:53;10.55;;;6.32;;
66595;SDS011;59017;49.252;18.838;2022-07-01T13:45:19;16.63;;;6.90;;
66595;SDS011;59017;49.252;18.838;2022-07-01T13:47:44;10.05;;;5.90;;
66595;SDS011;59017;49.252;18.838;2022-07-01T13:52:44;13.55;;;6.43;;
66595;SDS011;59017;49.252;18.838;2022-07-01T13:55:10;10.52;;;6.50;;
66595;SDS011;59017;49.252;18.838;2022-07-01T13:57:36;13.38;;;6.78;;
66595;SDS011;59017;49.252;18.838;2022-07-01T14:00:01;12.85;;;6.05;;
66595;SDS011;59017;49.252;18.838;2022-07-01T14:02:28;13.75;;;7.25;;
66595;SDS011;59017;49.252;18.838;2022-07-01T14:04:53;9.82;;;6.18;;
66595;SDS011;59017;49.252;18.838;2022-07-01T14:07:19;11.98;;;6.40;;
66595;SDS011;59017;49.252;18.838;2022-07-01T14:09:45;13.18;;;6.32;;
66595;SDS011;59017;49.252;18.838;2022-07-01T14:12:12;19.50;;;6.13;;
66595;SDS011;59017;49.252;18.838;2022-07-01T14:14:40;15.93;;;6.82;;
66595;SDS011;59017;49.252;18.838;2022-07-01T14:17:05;60.90;;;14.55;;
66595;SDS011;59017;49.252;18.838;2022-07-01T14:19:31;123.30;;;26.73;;
66595;SDS011;59017;49.252;18.838;2022-07-01T14:21:56;157.65;;;33.30;;
66595;SDS011;59017;49.252;18.838;2022-07-01T14:24:26;109.57;;;24.25;;
66595;SDS011;59017;49.252;18.838;2022-07-01T14:26:53;84.00;;;19.42;;
66595;SDS011;59017;49.252;18.838;2022-07-01T14:29:18;122.40;;;26.25;;
66595;SDS011;59017;49.252;18.838;2022-07-01T14:31:44;124.15;;;26.73;;
66595;SDS011;59017;49.252;18.838;2022-07-01T14:34:11;143.15;;;29.17;;
66595;SDS011;59017;49.252;18.838;2022-07-01T14:36:36;111.65;;;24.45;;
66595;SDS011;59017;49.252;18.838;2022-07-01T14:39:03;90.25;;;21.63;;
66595;SDS011;59017;49.252;18.838;2022-07-01T14:41:29;90.70;;;20.15;;
66595;SDS011;59017;49.252;18.838;2022-07-01T14:43:55;59.33;;;15.80;;
66595;SDS011;59017;49.252;18.838;2022-07-01T14:46:20;66.05;;;17.08;;
66595;SDS011;59017;49.252;18.838;2022-07-01T14:48:45;80.78;;;19.05;;
66595;SDS011;59017;49.252;18.838;2022-07-01T14:51:11;61.33;;;16.17;;
66595;SDS011;59017;49.252;18.838;2022-07-01T14:53:36;61.55;;;16.08;;
66595;SDS011;59017;49.252;18.838;2022-07-01T14:56:02;49.72;;;14.10;;
66595;SDS011;59017;49.252;18.838;2022-07-01T14:58:28;40.95;;;12.93;;
66595;SDS011;59017;49.252;18.838;2022-07-01T15:00:53;38.53;;;11.50;;
66595;SDS011;59017;49.252;18.838;2022-07-01T15:03:19;25.95;;;9.13;;
66595;SDS011;59017;49.252;18.838;2022-07-01T15:05:45;33.45;;;10.82;;
66595;SDS011;59017;49.252;18.838;2022-07-01T15:08:10;21.98;;;8.65;;
66595;SDS011;59017;49.252;18.838;2022-07-01T15:10:37;21.35;;;7.70;;
66595;SDS011;59017;49.252;18.838;2022-07-01T15:13:03;14.85;;;7.50;;
66595;SDS011;59017;49.252;18.838;2022-07-01T15:15:28;19.85;;;7.40;;
66595;SDS011;59017;49.252;18.838;2022-07-01T15:17:53;22.13;;;8.13;;
66595;SDS011;59017;49.252;18.838;2022-07-01T15:20:19;19.52;;;7.78;;